AU532 Weather Reports


Display with metric or nautical units.
time (UTC)temp
F
wind
direction
speed
MPH
gust
MPH
rain 1hr
in
rain 24hr
in
rain mn
in
humidity
%
barometer
mb
20190321201134 40 355 0.0 1.0 0.00 0.00 0.00 99 1040.1
20190321200234 40 1 0.0 1.0 0.00 0.00 0.00 99 1040.2
20190321195334 40 1 0.0 1.0 0.00 0.00 0.00 99 1040.0
20190321194433 40 0 0.0 0.0 0.00 0.00 0.00 99 1039.9
20190321193534 41 0 0.0 0.0 0.00 0.00 0.00 99 1039.9
20190321192634 42 0 0.0 0.0 0.00 0.00 0.00 99 1040.1
20190321191734 42 0 0.0 0.0 0.00 0.00 0.00 99 1040.0
20190321190834 43 0 0.0 0.0 0.00 0.00 0.00 97 1039.9
20190321185934 43 0 0.0 0.0 0.00 0.00 0.00 94 1039.8
20190321185034 44 0 0.0 0.0 0.00 0.00 0.00 94 1039.9
20190321184134 44 0 0.0 0.0 0.00 0.00 0.00 93 1039.8
20190321183234 44 0 0.0 0.0 0.00 0.00 0.00 89 1039.8
20190321182334 46 225 0.0 1.0 0.00 0.00 0.00 88 1039.9
20190321181434 46 0 0.0 0.0 0.00 0.00 0.00 87 1039.8
20190321180534 47 0 0.0 0.0 0.00 0.00 0.00 84 1039.7
20190321175634 48 135 0.0 1.0 0.00 0.00 0.00 82 1039.6
20190321174734 49 0 0.0 0.0 0.00 0.00 0.00 82 1039.4
20190321173834 49 0 0.0 0.0 0.00 0.00 0.00 81 1039.4
20190321172933 51 0 0.0 0.0 0.00 0.00 0.00 78 1039.4
20190321172034 53 342 0.0 2.0 0.00 0.00 0.00 74 1039.2
20190321171133 54 314 0.0 2.0 0.00 0.00 0.00 72 1039.2
20190321170233 56 296 0.0 1.0 0.00 0.00 0.00 69 1039.2
20190321165333 58 311 0.0 2.0 0.00 0.00 0.00 65 1039.1
20190321164434 62 311 0.0 2.0 0.00 0.00 0.00 59 1039.3
20190321163533 63 342 0.0 2.0 0.00 0.00 0.00 53 1039.2
20190321162633 65 130 0.0 2.0 0.00 0.00 0.00 52 1039.2
20190321161733 64 139 0.0 3.0 0.00 0.00 0.00 53 1039.1
20190321160833 66 109 2.0 3.0 0.00 0.00 0.00 50 1038.9
20190321155933 68 347 0.0 3.0 0.00 0.00 0.00 50 1039.2
20190321155033 68 314 1.0 2.0 0.00 0.00 0.00 49 1038.9
20190321154134 67 45 0.0 53.0 0.00 0.00 0.00 50 1038.9
20190321153233 68 37 1.0 53.0 1.51 1.51 0.00 49 1039.0
20190321152333 69 259 0.0 2.0 0.00 0.00 0.00 48 1039.2
20190321151433 68 213 0.0 3.0 0.00 0.00 0.00 50 1039.0
20190321150533 67 16 0.0 4.0 0.00 0.00 0.00 50 1039.1
20190321145633 67 317 2.0 4.0 0.00 0.00 0.00 48 1039.2
20190321144733 67 313 0.0 2.0 0.00 0.00 0.00 51 1039.2
20190321143833 65 149 1.0 2.0 0.00 0.00 0.00 51 1039.2
20190321142933 65 210 1.0 3.0 0.00 0.00 0.00 51 1039.3
20190321142033 65 118 0.0 10.0 0.00 0.00 0.00 52 1039.6
20190321141133 66 41 4.0 10.0 0.00 0.00 0.00 49 1039.7
20190321140234 66 90 1.0 4.0 0.00 0.00 0.00 52 1040.1
20190321135333 66 95 2.0 4.0 0.00 0.00 0.00 48 1040.0
20190321134433 65 52 2.0 3.0 0.00 0.00 0.00 50 1040.2
20190321133533 65 83 2.0 4.0 0.00 0.00 0.00 52 1040.2
20190321132633 64 65 2.0 5.0 0.00 0.00 0.00 54 1040.3
20190321131733 64 285 3.0 5.0 0.00 0.00 0.00 54 1040.5
20190321130833 64 266 2.0 4.0 0.00 0.00 0.00 54 1040.5
20190321125933 65 327 0.0 4.0 0.00 0.00 0.00 54 1040.7
20190321125033 64 128 1.0 4.0 0.00 0.00 0.00 55 1040.8
20190321124133 64 353 2.0 4.0 0.00 0.00 0.00 53 1041.0
20190321123233 62 316 2.0 6.0 0.00 0.00 0.00 56 1041.3
20190321122333 63 337 1.0 4.0 0.00 0.00 0.00 55 1041.3
20190321121433 62 139 1.0 5.0 0.00 0.00 0.00 55 1041.5
20190321120533 61 137 2.0 5.0 0.00 0.00 0.00 58 1041.6
20190321115633 62 13 2.0 5.0 0.00 0.00 0.00 57 1041.8
20190321114733 60 299 2.0 4.0 0.00 0.00 0.00 58 1041.7
20190321113833 60 346 2.0 5.0 0.00 0.00 0.00 60 1042.0
20190321112933 59 332 2.0 5.0 0.00 0.00 0.00 59 1041.9
20190321112033 60 348 2.0 4.0 0.00 0.00 0.00 60 1042.2
20190321111133 59 336 0.0 2.0 0.00 0.00 0.00 61 1042.3
20190321110233 59 355 0.0 5.0 0.00 0.00 0.00 62 1042.2
20190321105333 59 313 1.0 5.0 0.00 0.00 0.00 61 1042.3
20190321104433 59 294 0.0 4.0 0.00 0.00 0.00 64 1042.5
20190321103533 59 90 0.0 5.0 0.00 0.00 0.00 63 1042.2
20190321102633 58 351 0.0 3.0 0.00 0.00 0.00 67 1042.5
20190321101733 57 117 0.0 5.0 0.00 0.00 0.00 69 1042.6
20190321100833 56 216 2.0 4.0 0.00 0.00 0.00 70 1042.5
20190321095933 56 146 1.0 4.0 0.00 0.00 0.00 69 1042.6
20190321095033 54 152 0.0 3.0 0.00 0.00 0.00 75 1042.6
20190321094133 53 128 0.0 5.0 0.00 0.00 0.00 75 1042.7
20190321093233 54 218 2.0 4.0 0.00 0.00 0.00 76 1042.7
20190321092333 53 148 1.0 3.0 0.00 0.00 0.00 75 1042.9
20190321091434 53 359 1.0 3.0 0.00 0.00 0.00 75 1043.1
20190321090533 51 8 0.0 3.0 0.00 0.00 0.00 79 1043.0
20190321085633 51 306 1.0 3.0 0.00 0.00 0.00 78 1043.1
20190321084733 51 357 0.0 2.0 0.00 0.00 0.00 79 1043.1
20190321083833 49 333 0.0 2.0 0.00 0.00 0.00 86 1043.2
20190321082933 48 279 0.0 3.0 0.00 0.00 0.00 87 1043.2
20190321082033 47 10 0.0 3.0 0.00 0.00 0.00 91 1043.0
20190321081133 46 142 1.0 3.0 0.00 0.00 0.00 93 1043.2
20190321080233 44 278 0.0 2.0 0.00 0.00 0.00 97 1043.2
20190321075333 44 295 1.0 2.0 0.00 0.00 0.00 100 1043.3
20190321074433 43 296 1.0 2.0 0.00 0.00 0.00 99 1043.3
20190321073533 43 315 0.0 3.0 0.00 0.00 0.00 97 1043.2
20190321072633 43 298 0.0 1.0 0.00 0.00 0.00 99 1043.1
20190321071733 43 12 0.0 2.0 0.00 0.00 0.00 99 1043.1
20190321070834 42 232 0.0 1.0 0.00 0.00 0.00 99 1043.0
20190321065933 40 127 0.0 1.0 0.00 0.00 0.00 99 1043.2
20190321065033 38 152 0.0 1.0 0.00 0.00 0.00 99 1043.1
20190321064133 36 135 0.0 1.0 0.00 0.00 0.00 99 1043.3
20190321063233 33 0 0.0 0.0 0.00 0.00 0.00 99 1043.2
20190321062333 33 0 0.0 0.0 0.00 0.00 0.00 99 1043.3
20190321061433 31 0 0.0 0.0 0.00 0.00 0.00 99 1043.2
20190321060533 29 0 0.0 0.0 0.00 0.00 0.00 99 1043.1
20190321055633 26 135 0.0 1.0 0.00 0.00 0.00 99 1043.2
20190321054733 25 0 0.0 0.0 0.00 0.00 0.00 99 1043.2
20190321053833 25 0 0.0 0.0 0.00 0.00 0.00 99 1042.9
20190321052933 25 0 0.0 0.0 0.00 0.00 0.00 99 1042.9
20190321052033 24 0 0.0 0.0 0.00 0.00 0.00 99 1043.0
20190321051133 24 0 0.0 0.0 0.00 0.00 0.00 99 1042.9
20190321050233 24 0 0.0 0.0 0.00 0.00 0.00 99 1042.7
20190321045333 24 0 0.0 0.0 0.00 0.00 0.00 99 1042.8
20190321044433 24 0 0.0 0.0 0.00 0.00 0.00 99 1042.7
20190321043533 25 0 0.0 0.0 0.00 0.00 0.00 99 1042.7
20190321042633 25 0 0.0 0.0 0.00 0.00 0.00 99 1042.7
20190321041733 25 0 0.0 0.0 0.00 0.00 0.00 99 1042.6
20190321040833 25 0 0.0 0.0 0.00 0.00 0.00 99 1042.7
20190321035933 25 0 0.0 0.0 0.00 0.00 0.00 99 1042.4
20190321035033 25 0 0.0 0.0 0.00 0.00 0.00 99 1042.4
20190321034133 25 0 0.0 0.0 0.00 0.00 0.00 99 1042.3
20190321033233 25 0 0.0 0.0 0.00 0.00 0.00 99 1042.2
20190321032333 25 0 0.0 0.0 0.00 0.00 0.00 99 1042.4
20190321031433 25 0 0.0 0.0 0.00 0.00 0.00 99 1042.2
20190321030533 25 0 0.0 0.0 0.00 0.00 0.00 99 1042.0
20190321025633 26 0 0.0 0.0 0.00 0.00 0.00 99 1042.1
20190321024733 26 0 0.0 0.0 0.00 0.00 0.00 99 1042.5
20190321023833 26 0 0.0 0.0 0.00 0.00 0.00 99 1042.5
20190321022933 26 0 0.0 0.0 0.00 0.00 0.00 99 1042.4
20190321022033 26 0 0.0 0.0 0.00 0.00 0.00 99 1042.3
20190321021133 26 0 0.0 0.0 0.00 0.00 0.00 99 1042.5
20190321020233 26 0 0.0 0.0 0.00 0.00 0.00 99 1042.6
20190321015333 26 0 0.0 0.0 0.00 0.00 0.00 99 1042.7
20190321014433 26 0 0.0 0.0 0.00 0.00 0.00 99 1042.8
20190321013534 26 0 0.0 0.0 0.00 0.00 0.00 99 1043.1
20190321012633 26 0 0.0 0.0 0.00 0.00 0.00 99 1043.2
20190321011733 27 0 0.0 0.0 0.00 0.00 0.00 99 1043.0
20190321010833 27 0 0.0 0.0 0.00 0.00 0.00 99 1043.0
20190321005933 27 0 0.0 0.0 0.00 0.00 0.00 99 1043.1
20190321005033 28 0 0.0 0.0 0.00 0.00 0.00 99 1042.9
20190321004133 28 0 0.0 0.0 0.00 0.00 0.00 99 1042.9
20190321003233 28 0 0.0 0.0 0.00 0.00 0.00 99 1043.0
20190321002333 28 0 0.0 0.0 0.00 0.00 0.00 99 1042.9
20190321001433 28 0 0.0 0.0 0.00 0.00 0.00 99 1042.9
20190321000533 28 0 0.0 0.0 0.00 0.00 0.00 99 1042.8
20190320235633 28 0 0.0 0.0 0.00 0.00 0.00 99 1042.8
20190320234733 29 0 0.0 0.0 0.00 0.00 0.00 99 1042.7
20190320233833 29 0 0.0 0.0 0.00 0.00 0.00 99 1042.8
20190320232933 29 0 0.0 0.0 0.00 0.00 0.00 99 1042.7
20190320232033 29 0 0.0 0.0 0.00 0.00 0.00 99 1042.7
20190320231133 29 0 0.0 0.0 0.00 0.00 0.00 99 1042.8
20190320230233 29 0 0.0 0.0 0.00 0.00 0.00 99 1042.8
20190320225333 29 0 0.0 0.0 0.00 0.00 0.00 99 1042.7
20190320224433 29 0 0.0 0.0 0.00 0.00 0.00 99 1042.9
20190320223533 30 0 0.0 0.0 0.00 0.00 0.00 99 1042.7
20190320222633 30 0 0.0 0.0 0.00 0.00 0.00 99 1042.7
20190320221733 30 0 0.0 0.0 0.00 0.00 0.00 99 1042.7
20190320220833 30 0 0.0 0.0 0.00 0.00 0.00 99 1042.5
20190320215933 30 0 0.0 0.0 0.00 0.00 0.00 99 1042.4
20190320215033 30 0 0.0 0.0 0.00 0.00 0.00 99 1042.5
20190320214133 30 0 0.0 0.0 0.00 0.00 0.00 99 1042.4
20190320213233 31 0 0.0 0.0 0.00 0.00 0.00 99 1042.4
20190320212333 31 0 0.0 0.0 0.00 0.00 0.00 99 1042.4
20190320211433 31 0 0.0 0.0 0.00 0.00 0.00 99 1042.4
20190320210534 32 0 0.0 0.0 0.00 0.00 0.00 99 1042.2
20190320205633 32 0 0.0 0.0 0.00 0.00 0.00 99 1042.2
20190320204733 32 0 0.0 0.0 0.00 0.00 0.00 99 1042.2
20190320203833 32 0 0.0 0.0 0.00 0.00 0.00 99 1042.2
20190320202933 33 0 0.0 0.0 0.00 0.00 0.00 99 1042.3
20190320202033 33 0 0.0 0.0 0.00 0.00 0.00 99 1042.2